createdAt,value
2018-02-13T00:00:20.105Z,1.51
2018-02-13T00:01:20.035Z,1.58
2018-02-13T00:02:20.122Z,1.55
2018-02-13T00:03:19.974Z,1.47
2018-02-13T00:04:20.035Z,1.51
2018-02-13T00:05:19.912Z,1.52
2018-02-13T00:06:19.937Z,1.50
2018-02-13T00:07:19.851Z,1.50
2018-02-13T00:08:19.849Z,1.51
2018-02-13T00:09:19.786Z,1.55
2018-02-13T00:10:19.859Z,1.47
2018-02-13T00:11:19.724Z,1.57
2018-02-13T00:12:19.770Z,1.50
2018-02-13T00:13:19.662Z,1.43
2018-02-13T00:14:19.682Z,1.42
2018-02-13T00:15:19.598Z,1.47
2018-02-13T00:16:19.587Z,1.43
2018-02-13T00:17:19.536Z,1.44
2018-02-13T00:18:19.602Z,1.43
2018-02-13T00:19:19.468Z,1.46
2018-02-13T00:20:19.604Z,1.40
2018-02-13T00:21:19.600Z,1.47
2018-02-13T00:22:19.378Z,1.42
2018-02-13T00:23:19.516Z,1.37
2018-02-13T00:24:19.314Z,1.39
2018-02-13T00:25:19.425Z,1.43
2018-02-13T00:26:19.252Z,1.40
2018-02-13T00:27:19.222Z,1.40
2018-02-13T00:28:19.187Z,1.42
2018-02-13T00:29:19.350Z,1.34
2018-02-13T00:30:19.127Z,1.34
2018-02-13T00:31:19.260Z,1.37
2018-02-13T00:32:19.063Z,1.34
2018-02-13T00:33:19.174Z,1.33
2018-02-13T00:34:19.003Z,1.33
2018-02-13T00:35:19.088Z,1.40
2018-02-13T00:36:18.936Z,1.36
2018-02-13T00:37:19.102Z,1.37
2018-02-13T00:38:18.872Z,1.37
2018-02-13T00:39:19.008Z,1.37
2018-02-13T00:40:18.810Z,1.29
2018-02-13T00:41:18.923Z,1.34
2018-02-13T00:42:18.750Z,1.29
2018-02-13T00:43:18.832Z,1.32
2018-02-13T00:44:18.685Z,1.29
2018-02-13T00:45:18.846Z,1.25
2018-02-13T00:46:18.622Z,1.22
2018-02-13T00:47:18.758Z,1.26
2018-02-13T00:48:18.557Z,1.24
2018-02-13T00:49:18.675Z,1.22
2018-02-13T00:50:18.496Z,1.14
2018-02-13T00:51:18.581Z,1.08
2018-02-13T00:52:18.435Z,1.08
2018-02-13T00:53:18.605Z,1.16
2018-02-13T00:54:18.370Z,1.10
2018-02-13T00:55:18.513Z,1.14
2018-02-13T00:56:18.306Z,1.12
2018-02-13T00:57:18.425Z,1.07
2018-02-13T00:58:18.245Z,1.03
2018-02-13T00:59:18.331Z,1.07
2018-02-13T01:00:18.177Z,1.03
2018-02-13T01:01:18.245Z,1.07
2018-02-13T01:02:18.120Z,1.01
2018-02-13T01:03:18.158Z,1.00
2018-02-13T01:04:18.059Z,0.98
2018-02-13T01:05:18.066Z,0.94
2018-02-13T01:06:17.991Z,0.85
2018-02-13T01:07:18.079Z,0.94
2018-02-13T01:08:17.928Z,0.94
2018-02-13T01:09:17.990Z,0.96
2018-02-13T01:10:17.873Z,0.85
2018-02-13T01:11:17.915Z,0.83
2018-02-13T01:12:17.803Z,0.96
2018-02-13T01:13:17.812Z,0.83
2018-02-13T01:14:17.741Z,0.85
2018-02-13T01:15:17.826Z,0.85
2018-02-13T01:16:17.682Z,0.97
2018-02-13T01:17:17.737Z,0.94
2018-02-13T01:18:17.615Z,0.80
2018-02-13T01:19:17.647Z,0.88
2018-02-13T01:20:17.553Z,0.85
2018-02-13T01:21:17.563Z,0.86
2018-02-13T01:22:17.487Z,0.89
2018-02-13T01:23:17.577Z,0.94
2018-02-13T01:24:17.422Z,0.86
2018-02-13T01:25:17.486Z,0.86
2018-02-13T01:26:17.361Z,0.89
2018-02-13T01:27:17.396Z,0.82
2018-02-13T01:28:17.295Z,0.80
2018-02-13T01:29:17.309Z,0.86
2018-02-13T01:30:17.232Z,0.82
2018-02-13T01:31:17.324Z,0.80
2018-02-13T01:32:17.171Z,0.85
2018-02-13T01:33:17.237Z,0.79
2018-02-13T01:34:17.110Z,0.82
2018-02-13T01:35:17.143Z,0.86
2018-02-13T01:36:17.048Z,0.76
2018-02-13T01:37:17.162Z,0.88
2018-02-13T01:38:16.981Z,0.86
2018-02-13T01:39:17.073Z,0.85
2018-02-13T01:40:16.920Z,0.80
2018-02-13T01:41:16.982Z,0.78
2018-02-13T01:42:16.855Z,0.76
2018-02-13T01:43:16.893Z,0.85
2018-02-13T01:44:16.792Z,0.82
2018-02-13T01:45:16.909Z,0.80
2018-02-13T01:46:16.730Z,0.80
2018-02-13T01:47:16.822Z,0.82
2018-02-13T01:48:16.666Z,0.82
2018-02-13T01:49:16.732Z,0.90
2018-02-13T01:50:16.603Z,0.82
2018-02-13T01:51:16.645Z,0.80
2018-02-13T01:52:16.539Z,0.83
2018-02-13T01:53:16.658Z,0.82
2018-02-13T01:54:16.475Z,0.90
2018-02-13T01:55:16.568Z,0.82
2018-02-13T01:56:16.413Z,0.88
2018-02-13T01:57:16.479Z,0.83
2018-02-13T01:58:16.349Z,0.85
2018-02-13T01:59:16.391Z,0.86
2018-02-13T02:00:16.287Z,0.88
2018-02-13T02:01:16.403Z,0.86
2018-02-13T02:02:16.223Z,0.82
2018-02-13T02:03:16.320Z,0.86
2018-02-13T02:04:16.158Z,0.80
2018-02-13T02:05:16.234Z,0.86
2018-02-13T02:06:16.095Z,0.88
2018-02-13T02:07:16.140Z,0.92
2018-02-13T02:08:16.032Z,0.83
2018-02-13T02:09:16.155Z,0.82
2018-02-13T02:10:15.968Z,0.78
2018-02-13T02:11:16.067Z,0.86
2018-02-13T02:12:15.908Z,0.82
2018-02-13T02:13:15.978Z,0.80
2018-02-13T02:14:15.843Z,0.90
2018-02-13T02:15:15.888Z,0.85
2018-02-13T02:16:15.775Z,0.89
2018-02-13T02:17:15.904Z,0.82
2018-02-13T02:18:15.713Z,0.83
2018-02-13T02:19:15.816Z,0.78
2018-02-13T02:20:15.657Z,0.85
2018-02-13T02:21:15.724Z,0.75
2018-02-13T02:22:15.585Z,0.83
2018-02-13T02:23:15.643Z,0.71
2018-02-13T02:24:15.525Z,0.78
2018-02-13T02:25:15.652Z,0.70
2018-02-13T02:26:15.460Z,0.65
2018-02-13T02:27:15.562Z,0.72
2018-02-13T02:28:15.394Z,0.64
2018-02-13T02:29:15.476Z,0.67
2018-02-13T02:30:15.333Z,0.65
2018-02-13T02:31:15.388Z,0.68
2018-02-13T02:32:15.268Z,0.78
2018-02-13T02:33:15.400Z,0.76
2018-02-13T02:34:15.206Z,0.79
2018-02-13T02:35:15.325Z,0.75
2018-02-13T02:36:15.145Z,0.85
2018-02-13T02:37:15.224Z,0.82
2018-02-13T02:38:15.081Z,0.76
2018-02-13T02:39:15.235Z,0.67
2018-02-13T02:40:15.013Z,0.61
2018-02-13T02:41:15.151Z,0.65
2018-02-13T02:42:14.953Z,0.62
2018-02-13T02:43:15.060Z,0.70
2018-02-13T02:44:14.887Z,0.61
2018-02-13T02:45:14.973Z,0.68
2018-02-13T02:46:14.823Z,0.68
2018-02-13T02:47:14.990Z,0.62
2018-02-13T02:48:14.759Z,0.67
2018-02-13T02:49:14.897Z,0.65
2018-02-13T02:50:14.695Z,0.57
2018-02-13T02:51:14.807Z,0.61
2018-02-13T02:52:14.632Z,0.62
2018-02-13T02:53:14.719Z,0.65
2018-02-13T02:54:14.571Z,0.60
2018-02-13T02:55:14.734Z,0.68
2018-02-13T02:56:14.503Z,0.65
2018-02-13T02:57:14.644Z,0.53
2018-02-13T02:58:14.442Z,0.65
2018-02-13T02:59:14.558Z,0.62
2018-02-13T03:00:14.377Z,0.57
2018-02-13T03:01:14.470Z,0.62
2018-02-13T03:02:14.316Z,0.58
2018-02-13T03:03:14.484Z,0.67
2018-02-13T03:04:14.252Z,0.70
2018-02-13T03:05:14.394Z,0.60
2018-02-13T03:06:14.187Z,0.53
2018-02-13T03:07:14.306Z,0.60
2018-02-13T03:08:14.125Z,0.65
2018-02-13T03:09:14.217Z,0.57
2018-02-13T03:10:14.067Z,0.57
2018-02-13T03:11:14.231Z,0.67
2018-02-13T03:12:13.996Z,0.64
2018-02-13T03:13:14.142Z,0.41
2018-02-13T03:14:13.932Z,0.58
2018-02-13T03:15:14.055Z,0.58
2018-02-13T03:16:13.872Z,0.51
2018-02-13T03:17:13.968Z,0.58
2018-02-13T03:18:13.808Z,0.46
2018-02-13T03:19:13.979Z,0.45
2018-02-13T03:20:13.741Z,0.52
2018-02-13T03:21:13.789Z,0.49
2018-02-13T03:22:13.678Z,0.49
2018-02-13T03:23:13.700Z,0.46
2018-02-13T03:24:13.665Z,0.49
2018-02-13T03:25:13.612Z,0.49
2018-02-13T03:26:13.550Z,0.42
2018-02-13T03:27:13.629Z,0.45
2018-02-13T03:28:13.486Z,0.46
2018-02-13T03:29:13.538Z,0.43
2018-02-13T03:30:13.423Z,0.49
2018-02-13T03:31:13.449Z,0.48
2018-02-13T03:32:13.360Z,0.46
2018-02-13T03:33:13.362Z,0.48
2018-02-13T03:34:13.290Z,0.49
2018-02-13T03:35:13.373Z,0.45
2018-02-13T03:36:13.230Z,0.48
2018-02-13T03:37:13.288Z,0.51
2018-02-13T03:38:13.168Z,0.41
2018-02-13T03:39:13.199Z,0.39
2018-02-13T03:40:13.106Z,0.39
2018-02-13T03:41:13.115Z,0.34
2018-02-13T03:42:13.098Z,0.36
2018-02-13T03:43:13.122Z,0.33
2018-02-13T03:44:12.976Z,0.34
2018-02-13T03:45:13.032Z,0.28
2018-02-13T03:46:12.912Z,0.20
2018-02-13T03:47:12.946Z,0.36
2018-02-13T03:48:12.851Z,0.18
2018-02-13T03:49:12.855Z,0.23
2018-02-13T03:50:12.783Z,0.24
2018-02-13T03:51:12.871Z,0.16
2018-02-13T03:52:12.724Z,0.13
2018-02-13T03:53:12.780Z,0.12
2018-02-13T03:54:12.663Z,0.20
2018-02-13T03:55:12.692Z,0.20
2018-02-13T03:56:12.596Z,0.20
2018-02-13T03:57:12.707Z,0.24
2018-02-13T03:58:12.532Z,0.21
2018-02-13T03:59:12.618Z,0.23
2018-02-13T04:00:12.471Z,0.20
2018-02-13T04:01:12.530Z,0.16
2018-02-13T04:02:12.405Z,0.07
2018-02-13T04:03:12.477Z,0.09
2018-02-13T04:04:12.340Z,0.09
2018-02-13T04:05:12.454Z,0.10
2018-02-13T04:06:12.276Z,0.07
2018-02-13T04:07:12.371Z,0.12
2018-02-13T04:08:12.213Z,0.05
2018-02-13T04:09:12.278Z,0.13
2018-02-13T04:10:12.147Z,0.06
2018-02-13T04:11:12.189Z,0.00
2018-02-13T04:12:12.084Z,0.00
2018-02-13T04:13:12.205Z,-0.04
2018-02-13T04:14:12.019Z,-0.01
2018-02-13T04:15:12.114Z,0.00
2018-02-13T04:16:11.953Z,-0.05
2018-02-13T04:17:12.029Z,0.00
2018-02-13T04:18:11.891Z,-0.15
2018-02-13T04:19:11.937Z,-0.13
2018-02-13T04:20:11.829Z,-0.11
2018-02-13T04:21:11.952Z,-0.15
2018-02-13T04:22:11.764Z,-0.11
2018-02-13T04:23:11.864Z,-0.15
2018-02-13T04:24:11.698Z,-0.19
2018-02-13T04:25:11.773Z,-0.15
2018-02-13T04:26:11.635Z,-0.24
2018-02-13T04:27:11.687Z,-0.23
2018-02-13T04:28:11.571Z,-0.13
2018-02-13T04:29:11.701Z,-0.18
2018-02-13T04:30:11.507Z,-0.23
2018-02-13T04:31:11.611Z,-0.30
2018-02-13T04:32:11.445Z,-0.36
2018-02-13T04:33:11.523Z,-0.39
2018-02-13T04:34:11.384Z,-0.33
2018-02-13T04:35:11.435Z,-0.39
2018-02-13T04:36:11.315Z,-0.31
2018-02-13T04:37:11.451Z,-0.37
2018-02-13T04:38:11.254Z,-0.39
2018-02-13T04:39:11.360Z,-0.37
2018-02-13T04:40:11.191Z,-0.41
2018-02-13T04:41:11.276Z,-0.34
2018-02-13T04:42:11.122Z,-0.34
2018-02-13T04:43:11.186Z,-0.34
2018-02-13T04:44:11.058Z,-0.33
2018-02-13T04:45:11.197Z,-0.36
2018-02-13T04:46:10.996Z,-0.36
2018-02-13T04:47:11.111Z,-0.31
2018-02-13T04:48:10.931Z,-0.34
2018-02-13T04:49:11.020Z,-0.27
2018-02-13T04:50:10.866Z,-0.19
2018-02-13T04:51:10.933Z,-0.18
2018-02-13T04:52:10.802Z,-0.11
2018-02-13T04:53:10.942Z,-0.05
2018-02-13T04:54:10.742Z,-0.11
2018-02-13T04:55:10.858Z,0.00
2018-02-13T04:56:10.677Z,-0.01
2018-02-13T04:57:10.769Z,-0.06
2018-02-13T04:58:10.612Z,-0.05
2018-02-13T04:59:10.683Z,-0.05
2018-02-13T05:00:10.545Z,-0.05
2018-02-13T05:01:10.695Z,-0.05
2018-02-13T05:02:10.485Z,0.06
2018-02-13T05:03:10.607Z,-0.01
2018-02-13T05:04:10.415Z,0.07
2018-02-13T05:05:10.521Z,0.16
2018-02-13T05:06:10.353Z,0.07
2018-02-13T05:07:10.427Z,0.16
2018-02-13T05:08:10.288Z,0.12
2018-02-13T05:09:10.446Z,0.12
2018-02-13T05:10:10.221Z,0.15
2018-02-13T05:11:10.356Z,0.16
2018-02-13T05:12:10.165Z,0.20
2018-02-13T05:13:10.268Z,0.13
2018-02-13T05:14:10.097Z,0.12
2018-02-13T05:15:10.178Z,0.18
2018-02-13T05:16:10.029Z,0.13
2018-02-13T05:17:10.190Z,0.15
2018-02-13T05:18:09.966Z,0.20
2018-02-13T05:19:10.103Z,0.25
2018-02-13T05:20:09.901Z,0.13
2018-02-13T05:21:10.015Z,0.23
2018-02-13T05:22:09.841Z,0.15
2018-02-13T05:23:09.927Z,0.20
2018-02-13T05:24:09.774Z,0.30
2018-02-13T05:25:09.941Z,0.16
2018-02-13T05:26:09.761Z,0.30
2018-02-13T05:27:09.852Z,0.30
2018-02-13T05:28:09.645Z,0.34
2018-02-13T05:29:09.766Z,0.21
2018-02-13T05:30:09.580Z,0.30
2018-02-13T05:31:09.676Z,0.25
2018-02-13T05:32:09.515Z,0.25
2018-02-13T05:33:09.690Z,0.25
2018-02-13T05:34:09.452Z,0.24
2018-02-13T05:35:09.594Z,0.13
2018-02-13T05:36:09.391Z,0.18
2018-02-13T05:37:09.507Z,0.10
2018-02-13T05:38:09.324Z,0.09
2018-02-13T05:39:09.424Z,0.07
2018-02-13T05:40:09.260Z,0.09
2018-02-13T05:41:09.437Z,0.13
2018-02-13T05:42:09.197Z,0.15
2018-02-13T05:43:09.347Z,0.09
2018-02-13T05:44:09.131Z,0.07
2018-02-13T05:45:09.157Z,0.09
2018-02-13T05:46:09.057Z,0.10
2018-02-13T05:47:09.069Z,0.05
2018-02-13T05:48:08.992Z,0.07
2018-02-13T05:49:09.085Z,0.06
2018-02-13T05:50:08.951Z,0.06
2018-02-13T05:51:08.998Z,0.00
2018-02-13T05:52:08.872Z,0.00
2018-02-13T05:53:08.905Z,0.02
2018-02-13T05:54:08.804Z,-0.05
2018-02-13T05:55:08.817Z,-0.19
2018-02-13T05:56:08.745Z,-0.13
2018-02-13T05:57:08.831Z,-0.11
2018-02-13T05:58:08.682Z,-0.11
2018-02-13T05:59:08.723Z,-0.08
2018-02-13T06:00:08.616Z,-0.09
2018-02-13T06:01:08.655Z,-0.19
2018-02-13T06:02:08.553Z,-0.22
2018-02-13T06:03:08.566Z,-0.23
2018-02-13T06:04:08.481Z,-0.19
2018-02-13T06:05:08.582Z,-0.30
2018-02-13T06:06:08.424Z,-0.29
2018-02-13T06:07:08.493Z,-0.30
2018-02-13T06:08:08.357Z,-0.27
2018-02-13T06:09:08.405Z,-0.33
2018-02-13T06:10:08.297Z,-0.41
2018-02-13T06:11:08.316Z,-0.34
2018-02-13T06:12:08.232Z,-0.34
2018-02-13T06:13:08.329Z,-0.39
2018-02-13T06:14:08.169Z,-0.47
2018-02-13T06:15:08.241Z,-0.48
2018-02-13T06:16:08.101Z,-0.45
2018-02-13T06:17:08.151Z,-0.51
2018-02-13T06:18:08.040Z,-0.48
2018-02-13T06:19:08.064Z,-0.44
2018-02-13T06:20:07.973Z,-0.41
2018-02-13T06:21:08.078Z,-0.41
2018-02-13T06:22:07.909Z,-0.41
2018-02-13T06:23:07.990Z,-0.59
2018-02-13T06:24:07.844Z,-0.57
2018-02-13T06:25:07.906Z,-0.54
2018-02-13T06:26:07.783Z,-0.50
2018-02-13T06:27:07.816Z,-0.45
2018-02-13T06:28:07.717Z,-0.52
2018-02-13T06:29:07.827Z,-0.51
2018-02-13T06:30:07.651Z,-0.51
2018-02-13T06:31:07.738Z,-0.57
2018-02-13T06:32:07.588Z,-0.60
2018-02-13T06:33:07.648Z,-0.63
2018-02-13T06:34:07.523Z,-0.57
2018-02-13T06:35:07.560Z,-0.55
2018-02-13T06:36:07.460Z,-0.50
2018-02-13T06:37:07.575Z,-0.59
2018-02-13T06:38:07.395Z,-0.54
2018-02-13T06:39:07.488Z,-0.50
2018-02-13T06:40:07.328Z,-0.51
2018-02-13T06:41:07.399Z,-0.54
2018-02-13T06:42:07.264Z,-0.51
2018-02-13T06:43:07.309Z,-0.57
2018-02-13T06:44:07.200Z,-0.54
2018-02-13T06:45:07.321Z,-0.63
2018-02-13T06:46:07.136Z,-0.51
2018-02-13T06:47:07.233Z,-0.51
2018-02-13T06:48:07.068Z,-0.63
2018-02-13T06:49:07.144Z,-0.65
2018-02-13T06:50:07.007Z,-0.65
2018-02-13T06:51:07.056Z,-0.68
2018-02-13T06:52:06.940Z,-0.60
2018-02-13T06:53:07.071Z,-0.60
2018-02-13T06:54:06.877Z,-0.60
2018-02-13T06:55:06.982Z,-0.66
2018-02-13T06:56:06.815Z,-0.59
2018-02-13T06:57:06.901Z,-0.62
2018-02-13T06:58:06.747Z,-0.63
2018-02-13T06:59:06.810Z,-0.63
2018-02-13T07:00:06.685Z,-0.65
2018-02-13T07:01:06.818Z,-0.68
2018-02-13T07:02:06.618Z,-0.72
2018-02-13T07:03:06.726Z,-0.78
2018-02-13T07:04:06.555Z,-0.60
2018-02-13T07:05:06.642Z,-0.59
2018-02-13T07:06:06.492Z,-0.68
2018-02-13T07:07:06.553Z,-0.62
2018-02-13T07:08:06.425Z,-0.60
2018-02-13T07:09:06.568Z,-0.62
2018-02-13T07:10:06.360Z,-0.62
2018-02-13T07:11:06.492Z,-0.55
2018-02-13T07:12:06.298Z,-0.52
2018-02-13T07:13:06.391Z,-0.54
2018-02-13T07:14:06.230Z,-0.65
2018-02-13T07:15:06.299Z,-0.52
2018-02-13T07:16:06.165Z,-0.54
2018-02-13T07:17:06.316Z,-0.55
2018-02-13T07:18:06.100Z,-0.51
2018-02-13T07:19:06.226Z,-0.55
2018-02-13T07:20:06.039Z,-0.62
2018-02-13T07:21:06.139Z,-0.51
2018-02-13T07:22:05.975Z,-0.63
2018-02-13T07:23:06.053Z,-0.57
2018-02-13T07:24:05.907Z,-0.60
2018-02-13T07:25:06.062Z,-0.57
2018-02-13T07:26:05.843Z,-0.51
2018-02-13T07:27:05.973Z,-0.57
2018-02-13T07:28:05.780Z,-0.57
2018-02-13T07:29:05.890Z,-0.52
2018-02-13T07:30:05.714Z,-0.52
2018-02-13T07:31:05.797Z,-0.57
2018-02-13T07:32:05.654Z,-0.55
2018-02-13T07:33:05.812Z,-0.57
2018-02-13T07:34:05.588Z,-0.51
2018-02-13T07:35:05.724Z,-0.50
2018-02-13T07:36:05.522Z,-0.52
2018-02-13T07:37:05.636Z,-0.44
2018-02-13T07:38:05.459Z,-0.47
2018-02-13T07:39:05.545Z,-0.50
2018-02-13T07:40:05.392Z,-0.34
2018-02-13T07:41:05.562Z,-0.23
2018-02-13T07:42:05.326Z,-0.24
2018-02-13T07:43:05.470Z,-0.15
2018-02-13T07:44:05.261Z,-0.12
2018-02-13T07:45:05.434Z,-0.06
2018-02-13T07:46:05.201Z,0.07
2018-02-13T07:47:05.292Z,0.12
2018-02-13T07:48:05.128Z,0.13
2018-02-13T07:49:05.307Z,0.20
2018-02-13T07:50:05.072Z,0.23
2018-02-13T07:51:05.133Z,0.16
2018-02-13T07:52:05.005Z,0.33
2018-02-13T07:53:05.130Z,0.34
2018-02-13T07:54:04.940Z,0.31
2018-02-13T07:55:05.043Z,0.36
2018-02-13T07:56:04.876Z,0.41
2018-02-13T07:57:05.055Z,0.45
2018-02-13T07:58:04.817Z,0.58
2018-02-13T07:59:05.888Z,0.72
2018-02-13T08:00:04.745Z,0.83
2018-02-13T08:01:04.878Z,0.82
2018-02-13T08:02:04.682Z,0.88
2018-02-13T08:03:04.653Z,0.88
2018-02-13T08:04:04.697Z,0.85
2018-02-13T08:05:04.586Z,0.89
2018-02-13T08:06:04.602Z,0.85
2018-02-13T08:07:04.523Z,0.92
2018-02-13T08:08:04.492Z,0.97
2018-02-13T08:09:04.455Z,1.06
2018-02-13T08:10:04.533Z,1.08
2018-02-13T08:11:04.398Z,1.15
2018-02-13T08:12:04.445Z,1.14
2018-02-13T08:13:04.332Z,1.10
2018-02-13T08:14:04.354Z,1.18
2018-02-13T08:15:04.270Z,1.22
2018-02-13T08:16:04.268Z,1.32
2018-02-13T08:17:04.202Z,1.33
2018-02-13T08:18:04.281Z,1.36
2018-02-13T08:19:04.139Z,1.34
2018-02-13T08:20:04.191Z,1.40
2018-02-13T08:21:04.101Z,1.46
2018-02-13T08:22:04.113Z,1.57
2018-02-13T08:23:04.007Z,1.57
2018-02-13T08:24:04.022Z,1.58
2018-02-13T08:25:03.947Z,1.64
2018-02-13T08:26:04.029Z,1.54
2018-02-13T08:27:03.872Z,1.55
2018-02-13T08:28:04.002Z,1.69
2018-02-13T08:29:03.817Z,1.68
2018-02-13T08:30:03.857Z,1.72
2018-02-13T08:31:03.753Z,1.79
2018-02-13T08:32:03.791Z,1.87
2018-02-13T08:33:03.691Z,1.83
2018-02-13T08:34:03.672Z,1.82
2018-02-13T08:35:03.624Z,1.79
2018-02-13T08:36:03.684Z,1.80
2018-02-13T08:37:03.562Z,1.89
2018-02-13T08:38:03.601Z,1.90
2018-02-13T08:39:03.499Z,1.93
2018-02-13T08:40:03.513Z,1.97
2018-02-13T08:41:03.433Z,1.99
2018-02-13T08:42:03.422Z,2.08
2018-02-13T08:43:03.373Z,2.13
2018-02-13T08:44:03.437Z,2.13
2018-02-13T08:45:03.325Z,2.10
2018-02-13T08:46:03.352Z,2.17
2018-02-13T08:47:03.244Z,2.16
2018-02-13T08:48:03.277Z,2.19
2018-02-13T08:49:03.181Z,2.31
2018-02-13T08:50:03.171Z,2.35
2018-02-13T08:51:03.118Z,2.33
2018-02-13T08:52:03.185Z,2.31
2018-02-13T08:53:03.056Z,2.35
2018-02-13T08:54:03.097Z,2.44
2018-02-13T08:55:02.993Z,2.41
2018-02-13T08:56:03.009Z,2.44
2018-02-13T08:57:02.930Z,2.40
2018-02-13T08:58:02.920Z,2.56
2018-02-13T08:59:02.867Z,2.49
2018-02-13T09:00:02.933Z,2.45
2018-02-13T09:01:02.805Z,2.52
2018-02-13T09:02:02.792Z,2.59
2018-02-13T09:03:02.741Z,2.59
2018-02-13T09:04:02.859Z,2.64
2018-02-13T09:05:02.679Z,2.70
2018-02-13T09:06:02.771Z,2.70
2018-02-13T09:07:02.616Z,2.79
2018-02-13T09:08:02.583Z,2.85
2018-02-13T09:09:02.555Z,2.81
2018-02-13T09:10:02.592Z,2.94
2018-02-13T09:11:02.493Z,2.95
2018-02-13T09:12:02.560Z,2.94
2018-02-13T09:13:02.431Z,3.02
2018-02-13T09:14:02.519Z,3.06
2018-02-13T09:15:02.380Z,3.10
2018-02-13T09:16:02.432Z,3.16
2018-02-13T09:17:02.309Z,3.23
2018-02-13T09:18:02.343Z,3.21
2018-02-13T09:19:02.249Z,3.30
2018-02-13T09:20:02.356Z,3.36
2018-02-13T09:21:02.181Z,3.34
2018-02-13T09:22:02.267Z,3.46
2018-02-13T09:23:02.119Z,3.43
2018-02-13T09:24:02.178Z,3.54
2018-02-13T09:25:02.058Z,3.61
2018-02-13T09:26:02.194Z,3.68
2018-02-13T09:27:01.994Z,3.86
2018-02-13T09:28:02.101Z,4.01
2018-02-13T09:29:01.936Z,4.37
2018-02-13T09:30:02.019Z,5.10
2018-02-13T09:31:01.874Z,5.86
2018-02-13T09:32:01.926Z,6.73
2018-02-13T09:33:01.811Z,7.71
2018-02-13T09:34:01.933Z,8.37
2018-02-13T09:35:01.754Z,8.96
2018-02-13T09:36:01.849Z,8.97
2018-02-13T09:37:01.690Z,9.04
2018-02-13T09:38:01.764Z,9.01
2018-02-13T09:39:01.645Z,9.48
2018-02-13T09:40:01.778Z,9.91
2018-02-13T09:41:01.586Z,10.18
2018-02-13T09:42:01.688Z,10.77
2018-02-13T09:43:01.540Z,11.02
2018-02-13T09:44:01.597Z,10.99
2018-02-13T09:45:01.486Z,11.38
2018-02-13T09:46:01.617Z,11.80
2018-02-13T09:47:01.442Z,11.80
2018-02-13T09:48:01.529Z,12.05
2018-02-13T09:49:01.400Z,12.05
2018-02-13T09:50:01.541Z,12.23
2018-02-13T09:51:01.354Z,12.74
2018-02-13T09:52:01.452Z,13.15
2018-02-13T09:53:01.318Z,13.65
2018-02-13T09:54:01.466Z,13.06
2018-02-13T09:55:01.271Z,12.99
2018-02-13T09:56:01.385Z,13.07
2018-02-13T09:57:01.237Z,12.75
2018-02-13T09:58:01.387Z,12.38
2018-02-13T09:59:01.200Z,12.44
2018-02-13T10:00:01.201Z,12.46
2018-02-13T10:01:01.166Z,12.92
2018-02-13T10:02:01.160Z,13.21
2018-02-13T10:03:01.130Z,13.09
2018-02-13T10:04:01.113Z,13.30
2018-02-13T10:05:01.089Z,14.07
2018-02-13T10:06:01.139Z,13.81
2018-02-13T10:07:01.056Z,13.43
2018-02-13T10:08:01.154Z,13.52
2018-02-13T10:09:01.037Z,13.32
2018-02-13T10:10:01.066Z,13.40
2018-02-13T10:11:01.001Z,13.96
2018-02-13T10:12:01.078Z,14.44
2018-02-13T10:13:00.971Z,14.67
2018-02-13T10:14:00.982Z,14.53
2018-02-13T10:15:00.941Z,14.54
2018-02-13T10:16:01.002Z,14.61
2018-02-13T10:17:00.911Z,14.27
2018-02-13T10:18:00.919Z,14.88
2018-02-13T10:19:00.883Z,15.46
2018-02-13T10:20:00.930Z,15.88
2018-02-13T10:21:00.911Z,16.09
2018-02-13T10:22:00.944Z,15.94
2018-02-13T10:23:00.827Z,15.85
2018-02-13T10:24:00.857Z,15.82
2018-02-13T10:25:00.802Z,16.09
2018-02-13T10:26:00.867Z,15.57
2018-02-13T10:27:00.776Z,15.35
2018-02-13T10:28:00.793Z,15.74
2018-02-13T10:29:00.768Z,16.23
2018-02-13T10:30:00.830Z,16.95
2018-02-13T10:31:00.765Z,16.99
2018-02-13T10:32:00.811Z,16.59
2018-02-13T10:33:00.696Z,16.73
2018-02-13T10:34:00.720Z,17.08
2018-02-13T10:35:00.675Z,17.59
2018-02-13T10:36:00.739Z,17.29
2018-02-13T10:37:00.669Z,16.85
2018-02-13T10:38:00.737Z,16.90
2018-02-13T10:39:00.631Z,17.10
2018-02-13T10:40:00.658Z,16.59
2018-02-13T10:41:00.603Z,16.25
2018-02-13T10:42:00.676Z,16.63
2018-02-13T10:43:00.589Z,15.76
2018-02-13T10:44:00.688Z,15.97
2018-02-13T10:45:00.561Z,16.56
2018-02-13T10:46:00.612Z,16.00
2018-02-13T10:47:00.541Z,16.15
2018-02-13T10:48:00.658Z,16.73
2018-02-13T10:49:00.520Z,17.28
2018-02-13T10:50:00.530Z,17.67
2018-02-13T10:51:00.495Z,16.95
2018-02-13T10:52:00.536Z,16.37
2018-02-13T10:53:00.473Z,15.86
2018-02-13T10:54:00.551Z,15.54
2018-02-13T10:55:00.451Z,15.96
2018-02-13T10:56:00.467Z,16.18
2018-02-13T10:57:00.431Z,16.34
2018-02-13T10:58:00.478Z,16.93
2018-02-13T10:59:00.409Z,17.47
2018-02-13T11:00:00.483Z,17.54
2018-02-13T11:01:00.400Z,17.55
2018-02-13T11:02:00.402Z,17.08
2018-02-13T11:03:00.367Z,16.70
2018-02-13T11:04:00.415Z,16.67
2018-02-13T11:05:00.353Z,17.23
2018-02-13T11:06:00.429Z,16.56
2018-02-13T11:07:00.327Z,16.60
2018-02-13T11:08:00.340Z,17.29
2018-02-13T11:09:00.295Z,17.32
2018-02-13T11:10:00.361Z,17.33
2018-02-13T11:11:00.282Z,17.63
2018-02-13T11:12:00.368Z,18.04
2018-02-13T11:13:00.260Z,18.73
2018-02-13T11:14:00.280Z,18.91
2018-02-13T11:15:00.238Z,19.40
2018-02-13T11:16:00.294Z,19.39
2018-02-13T11:17:00.220Z,19.51
2018-02-13T11:18:00.310Z,19.73
2018-02-13T11:19:00.210Z,19.46
2018-02-13T11:20:00.218Z,18.97
2018-02-13T11:21:00.179Z,18.31
2018-02-13T11:22:00.234Z,18.74
2018-02-13T11:23:00.158Z,18.07
2018-02-13T11:24:00.250Z,17.76
2018-02-13T11:25:00.139Z,18.10
2018-02-13T11:26:00.161Z,18.62
2018-02-13T11:27:00.118Z,18.92
2018-02-13T11:28:00.172Z,18.07
2018-02-13T11:29:00.102Z,18.27
2018-02-13T11:30:00.188Z,18.22
2018-02-13T11:31:00.084Z,18.07
2018-02-13T11:32:00.098Z,17.70
2018-02-13T11:33:00.067Z,17.67
2018-02-13T11:34:00.119Z,17.64
2018-02-13T11:35:00.049Z,17.11
2018-02-13T11:36:00.128Z,15.96
2018-02-13T11:37:00.028Z,15.52
2018-02-13T11:38:00.039Z,15.48
2018-02-13T11:39:00.014Z,14.98
2018-02-13T11:40:00.055Z,15.27
2018-02-13T11:40:59.986Z,15.39
2018-02-13T11:42:00.065Z,15.72
2018-02-13T11:42:59.965Z,15.72
2018-02-13T11:43:59.977Z,15.31
2018-02-13T11:44:59.947Z,15.39
2018-02-13T11:45:59.991Z,15.49
2018-02-13T11:46:59.925Z,15.75
2018-02-13T11:48:00.010Z,15.74
2018-02-13T11:48:59.905Z,15.56
2018-02-13T11:49:59.917Z,15.64
2018-02-13T11:50:59.883Z,15.70
2018-02-13T11:51:59.928Z,15.27
2018-02-13T11:52:59.864Z,15.75
2018-02-13T11:53:59.943Z,15.97
2018-02-13T11:54:59.842Z,15.08
2018-02-13T11:55:59.856Z,15.03
2018-02-13T11:56:59.822Z,14.84
2018-02-13T11:57:59.870Z,14.61
2018-02-13T11:58:59.801Z,14.95
2018-02-13T11:59:59.883Z,14.95
2018-02-13T12:00:59.780Z,14.81
2018-02-13T12:01:59.794Z,14.78
2018-02-13T12:02:59.758Z,14.24
2018-02-13T12:03:59.808Z,13.52
2018-02-13T12:04:59.743Z,13.80
2018-02-13T12:05:59.823Z,13.92
2018-02-13T12:06:59.709Z,13.79
2018-02-13T12:07:59.727Z,13.61
2018-02-13T12:08:59.692Z,13.06
2018-02-13T12:09:59.747Z,12.62
2018-02-13T12:10:59.668Z,12.52
2018-02-13T12:11:59.761Z,12.20
2018-02-13T12:12:59.651Z,12.33
2018-02-13T12:13:59.676Z,12.60
2018-02-13T12:14:59.628Z,12.87
2018-02-13T12:15:59.689Z,12.95
2018-02-13T12:16:59.600Z,12.74
2018-02-13T12:17:59.719Z,12.54
2018-02-13T12:18:59.575Z,12.39
2018-02-13T12:19:59.613Z,12.12
2018-02-13T12:20:59.552Z,11.99
2018-02-13T12:21:59.627Z,11.56
2018-02-13T12:22:59.528Z,11.57
2018-02-13T12:23:59.541Z,12.01
2018-02-13T12:24:59.506Z,11.99
2018-02-13T12:25:59.551Z,11.94
2018-02-13T12:26:59.477Z,12.33
2018-02-13T12:27:59.565Z,12.60
2018-02-13T12:28:59.451Z,12.54
2018-02-13T12:29:59.477Z,12.33
2018-02-13T12:30:59.431Z,12.44
2018-02-13T12:31:59.492Z,12.52
2018-02-13T12:32:59.399Z,12.33
2018-02-13T12:33:59.402Z,12.69
2018-02-13T12:34:59.374Z,12.71
2018-02-13T12:35:59.416Z,12.69
2018-02-13T12:36:59.344Z,12.45
2018-02-13T12:37:59.437Z,12.16
2018-02-13T12:38:59.320Z,12.16
2018-02-13T12:39:59.344Z,12.08
2018-02-13T12:40:59.292Z,12.11
2018-02-13T12:41:59.357Z,12.44
2018-02-13T12:42:59.267Z,12.79
2018-02-13T12:43:59.268Z,12.74
2018-02-13T12:44:59.236Z,12.70
2018-02-13T12:45:59.281Z,12.63
2018-02-13T12:46:59.212Z,12.39
2018-02-13T12:47:59.295Z,12.16
2018-02-13T12:48:59.197Z,11.96
2018-02-13T12:49:59.208Z,11.90
2018-02-13T12:50:59.157Z,12.19
2018-02-13T12:51:59.225Z,12.60
2018-02-13T12:52:59.127Z,12.64
2018-02-13T12:53:59.132Z,12.31
2018-02-13T12:54:59.100Z,12.05
2018-02-13T12:55:59.146Z,12.06
2018-02-13T12:56:59.078Z,11.85
2018-02-13T12:57:59.158Z,11.59
2018-02-13T12:58:59.042Z,11.56
2018-02-13T12:59:59.073Z,11.54
2018-02-13T13:00:59.013Z,11.34
2018-02-13T13:01:59.087Z,11.25
2018-02-13T13:02:58.987Z,11.46
2018-02-13T13:03:58.997Z,11.68
2018-02-13T13:04:58.954Z,11.61
2018-02-13T13:05:59.011Z,11.74